Terminal Aerodrome Forecast
Issued by NWS

Home | Current Version | Previous Version | Text Only | Print | Product List | Glossary On
Versions: 1 2 3 4 5 6 7 8 9 10 11 12
592
FTUS44 KLZK 242320
TAFBPK
TAF
KBPK 242320Z 2500/2524 20004KT P6SM VCTS SCT050CB SCT110
     FM250900 00000KT P6SM VCFG SCT250
      TEMPO 2509/2513 3SM BR
     FM251400 VRB05KT P6SM VCTS SCT050CB SCT250=

USA.gov is the U.S. government's official web portal to all federal, state and local government web resources and services.